Walloon Lake, MI (49796)

7:00 AM EST on February 13, 2016 (GMT -0500)
APRSWXNET | | Change Station
CLOSE
Current Station
Personal Weather Station
Location: Walloon Lake, MI
Elevation: 898 ft
Nearby Weather Stations
Active Advisory: Wind Chill Advisory Active Notice: Local Storm Report

Elev 898 ft 45.30 °N, 84.90 °W | Updated 32 minutes ago

Overcast
Overcast
-12 °F
Feels Like -12 °F
N
0
Wind Variable Wind from South
Gusts 0.0 mph

Today
High -- | Low -- °F
--% Chance of Precip.
Yesterday
High -- | Low -- °F
Precip. -- in
Pressure 30.37 in
Visibility 10.0 miles
Clouds Overcast 5000 ft
Windchill -12 °F
Dew Point -16 °F
Humidity 81%
Rainfall in
Snow Depth Not available.
7:44 AM 6:03 PM
Waxing Crescent, 30% visible
METAR KMGN 131154Z AUTO 00000KT 10SM OVC050 M23/M27 A3037 RMK AO2 T12401273
Pressure 30.37 in
Visibility 10.0 miles
Clouds Overcast 5000 ft
Windchill -12 °F
Dew Point -16 °F
Humidity 81%
Rainfall in
Snow Depth Not available.
7:44 AM 6:03 PM
Waxing Crescent, 30% visible
METAR KMGN 131154Z AUTO 00000KT 10SM OVC050 M23/M27 A3037 RMK AO2 T12401273

10-Day Weather Forecast

Almanac

Astronomy

Feb. 13, 2016 Rise Set
Actual Time
Civil Twilight
Nautical Twilight
Astronomical Twilight
Moon
Length of Visible Light
Length of Day
Tomorrow will be .
, % of the Moon is Illuminated

Today's Extremes

State Highs State Lows

Community

WunderPhotos

Upload Photos

1,892,541 photos uploaded!

WunderBlog® & News

Nearby

Air Quality

  Air Quality AQ Index Pollutant
Not available.

Snow Depth

Station Depth Elevation

Earthquake Activity

City Distance Mag. Time & Date
Minimum magnitude displayed is 2.5.

Coastal Water Temperatures

Place Temperature

Stations

Nearby Weather Stations

Station Location Temp. Windchill Dew Point Humidity Wind Precip. Elev Updated Type
                   

Watches & Warnings

Wind Chill Advisory
Issued: 3:53 AM EST Feb. 13, 2016 – National Weather Service

... Wind Chill Advisory in effect until noon EST today...
... Winter Weather Advisory is cancelled...

The National Weather Service in Gaylord has issued a Wind Chill
Advisory... which is in effect until noon EST today. The Winter
Weather Advisory has been cancelled.

* Wind chill values of 20 to 30 below zero will be felt into the
morning.

* It only takes 20 to 30 minutes of unprotected exposure to these
temperatures to get frostbite.

Precautionary/preparedness actions...

A Wind Chill Advisory means that very cold air and strong winds
will combine to generate low wind chills. This will result in
frost bite and lead to hypothermia if precautions are not taken.
If you must venture outdoors... make sure you wear a hat and
gloves.